ZMUB/ULN METAR and TAF weather

Enter ICAO airport designator
Station Type Date Time Source
ZMUB METAR 2022/05/23 15:00 UTC NOAA

ZMUB 231500Z 35007MPS 9999 SCT100 13/02 Q1015 NOSIG RMK QFE654.3 46 NT


Station Type Date Time Source
ZMUB Decoded METAR 2022/05/23 15:00 UTC NOAA

Ulan-Bator, Mongolia (ZMUB) 47-51N 106-46E
May 23, 2022 - 11:00 AM EDT / 2022.05.23 1500 UTC
Wind: from the N (350 degrees) at 16 MPH (14 KT):0
Visibility: greater than 7 mile(s):0
Sky conditions: partly cloudy
Temperature: 55 F (13 C)
Dew Point: 35 F (2 C)
Relative Humidity: 47%
Pressure (altimeter): 29.97 in. Hg (1015 hPa)
ob: ZMUB 231500Z 35007MPS 9999 SCT100 13/02 Q1015 NOSIG RMK QFE654.3 46 NT
cycle: 15

Station Type Date Time Source
ZMUB TAF 2022/05/23 12:51 UTC NOAA

TAF COR TAF COR ZMUB 231046Z 2312/2418 34008MPS 9999 FEW030CB SCT033 TN04/2322Z TX21/2407Z
BECMG 2313/2315 36005MPS
BECMG 2400/2402 35007MPS
BECMG 2410/2412 VRB02MPS

Example: see airport list